createdAt,value
2022-12-23T00:01:23.059Z,80.68
2022-12-23T00:03:49.927Z,81.01
2022-12-23T00:06:17.766Z,81.14
2022-12-23T00:08:44.703Z,81.13
2022-12-23T00:11:15.550Z,81.49
2022-12-23T00:14:01.166Z,81.06
2022-12-23T00:16:27.754Z,81.42
2022-12-23T00:18:54.469Z,81.88
2022-12-23T00:21:21.878Z,81.85
2022-12-23T00:23:49.765Z,81.82
2022-12-23T00:26:19.119Z,82.82
2022-12-23T00:28:45.897Z,82.40
2022-12-23T00:31:13.320Z,82.03
2022-12-23T00:33:42.652Z,81.65
2022-12-23T00:36:22.598Z,81.57
2022-12-23T00:39:08.204Z,81.62
2022-12-23T00:41:54.102Z,81.71
2022-12-23T00:44:21.024Z,82.05
2022-12-23T00:46:47.521Z,82.15
2022-12-23T00:49:36.108Z,82.53
2022-12-23T00:52:04.536Z,82.54
2022-12-23T00:54:31.838Z,82.04
2022-12-23T00:56:59.132Z,82.15
2022-12-23T00:59:25.515Z,81.91
2022-12-23T01:02:10.619Z,81.70
2022-12-23T01:04:55.766Z,81.49
2022-12-23T01:07:23.407Z,82.50
2022-12-23T01:09:49.740Z,83.24
2022-12-23T01:12:16.079Z,84.05
2022-12-23T01:14:42.435Z,84.28
2022-12-23T01:17:09.389Z,84.36
2022-12-23T01:19:35.899Z,84.44
2022-12-23T01:22:02.292Z,84.43
2022-12-23T01:24:32.642Z,83.30
2022-12-23T01:26:59.324Z,83.30
2022-12-23T01:29:26.268Z,83.34
2022-12-23T01:31:52.714Z,82.90
2022-12-23T01:34:19.113Z,82.89
2022-12-23T01:36:45.456Z,82.31
2022-12-23T01:39:11.791Z,82.10
2022-12-23T01:41:56.824Z,82.23
2022-12-23T01:44:48.602Z,82.60
2022-12-23T01:47:22.145Z,83.07
2022-12-23T01:49:51.165Z,83.10
2022-12-23T01:52:17.542Z,82.85
2022-12-23T01:54:44.677Z,82.93
2022-12-23T01:57:11.943Z,82.11
2022-12-23T01:59:56.998Z,82.25
2022-12-23T02:02:42.186Z,81.96
2022-12-23T02:05:08.749Z,82.00
2022-12-23T02:07:54.342Z,81.41
2022-12-23T02:10:25.583Z,81.84
2022-12-23T02:13:24.409Z,82.55
2022-12-23T02:16:19.419Z,81.71
2022-12-23T02:19:04.413Z,81.35
2022-12-23T02:21:53.892Z,81.62
2022-12-23T02:24:48.517Z,82.24
2022-12-23T02:27:26.631Z,82.35
2022-12-23T02:30:34.872Z,82.69
2022-12-23T02:33:19.491Z,82.91
2022-12-23T02:35:58.561Z,82.83
2022-12-23T02:38:50.751Z,82.74
2022-12-23T02:41:31.796Z,82.63
2022-12-23T02:44:11.824Z,82.59
2022-12-23T02:46:47.211Z,82.35
2022-12-23T02:49:20.791Z,82.23
2022-12-23T02:51:54.173Z,82.37
2022-12-23T02:54:33.263Z,83.07
2022-12-23T02:57:03.382Z,83.85
2022-12-23T02:59:36.249Z,83.09
2022-12-23T03:02:02.702Z,83.21
2022-12-23T03:04:29.243Z,82.86
2022-12-23T03:07:02.818Z,83.05
2022-12-23T03:09:58.095Z,83.00
2022-12-23T03:12:33.501Z,83.22
2022-12-23T03:15:12.652Z,84.72
2022-12-23T03:18:13.984Z,86.22
2022-12-23T03:21:01.712Z,87.23
2022-12-23T03:23:32.635Z,87.32
2022-12-23T03:26:32.280Z,87.14
2022-12-23T03:29:08.009Z,86.73
2022-12-23T03:31:36.417Z,86.49
2022-12-23T03:34:08.823Z,86.77
2022-12-23T03:36:40.889Z,87.13
2022-12-23T03:39:13.285Z,87.46
2022-12-23T03:41:44.802Z,87.84
2022-12-23T03:44:18.153Z,87.73
2022-12-23T03:46:53.143Z,87.54
2022-12-23T03:49:41.278Z,87.86
2022-12-23T03:52:20.781Z,87.24
2022-12-23T03:54:57.891Z,87.24
2022-12-23T03:57:37.293Z,87.03
2022-12-23T04:00:04.494Z,87.38
2022-12-23T04:02:43.346Z,87.90
2022-12-23T04:05:22.092Z,88.60
2022-12-23T04:08:14.515Z,88.46
2022-12-23T04:10:41.087Z,87.64
2022-12-23T04:13:08.223Z,86.65
2022-12-23T04:15:40.025Z,86.84
2022-12-23T04:18:07.221Z,86.06
2022-12-23T04:20:33.779Z,86.17
2022-12-23T04:23:00.132Z,86.07
2022-12-23T04:25:26.506Z,85.86
2022-12-23T04:27:52.832Z,85.65
2022-12-23T04:30:19.235Z,85.17
2022-12-23T04:32:45.829Z,85.40
2022-12-23T04:35:12.518Z,85.56
2022-12-23T04:37:39.154Z,85.59
2022-12-23T04:40:06.262Z,85.25
2022-12-23T04:42:32.808Z,85.58
2022-12-23T04:44:59.340Z,85.24
2022-12-23T04:47:25.703Z,84.73
2022-12-23T04:49:52.043Z,85.35
2022-12-23T04:52:18.393Z,85.54
2022-12-23T04:54:46.446Z,85.40
2022-12-23T04:57:13.480Z,85.89
2022-12-23T04:59:39.818Z,85.78
2022-12-23T05:02:07.926Z,85.42
2022-12-23T05:04:34.723Z,85.83
2022-12-23T05:07:01.059Z,85.88
2022-12-23T05:09:27.542Z,85.68
2022-12-23T05:11:54.285Z,85.47
2022-12-23T05:14:20.673Z,85.48
2022-12-23T05:16:47.307Z,85.79
2022-12-23T05:19:13.971Z,86.42
2022-12-23T05:21:40.479Z,87.16
2022-12-23T05:24:06.975Z,87.51
2022-12-23T05:26:33.449Z,87.51
2022-12-23T05:28:59.789Z,87.43
2022-12-23T05:31:26.194Z,86.89
2022-12-23T05:33:52.689Z,87.21
2022-12-23T05:36:19.170Z,86.45
2022-12-23T05:38:45.695Z,86.54
2022-12-23T05:41:12.180Z,85.93
2022-12-23T05:43:38.529Z,85.75
2022-12-23T05:46:05.105Z,86.16
2022-12-23T05:48:31.509Z,86.22
2022-12-23T05:50:57.999Z,86.26
2022-12-23T05:53:24.579Z,86.29
2022-12-23T05:55:50.957Z,85.51
2022-12-23T05:58:17.546Z,85.81
2022-12-23T06:00:44.035Z,85.65
2022-12-23T06:03:11.792Z,85.37
2022-12-23T06:05:39.643Z,85.44
2022-12-23T06:08:06.129Z,85.35
2022-12-23T06:10:32.486Z,85.31
2022-12-23T06:12:58.806Z,85.37
2022-12-23T06:15:25.370Z,85.76
2022-12-23T06:17:51.734Z,85.21
2022-12-23T06:20:20.683Z,84.98
2022-12-23T06:22:47.900Z,85.37
2022-12-23T06:25:14.309Z,85.72
2022-12-23T06:27:40.845Z,85.62
2022-12-23T06:30:08.037Z,85.76
2022-12-23T06:32:38.266Z,85.98
2022-12-23T06:35:06.556Z,85.89
2022-12-23T06:37:32.923Z,86.40
2022-12-23T06:39:59.320Z,86.91
2022-12-23T06:42:25.772Z,87.62
2022-12-23T06:44:52.091Z,87.85
2022-12-23T06:47:18.424Z,88.56
2022-12-23T06:49:44.767Z,88.48
2022-12-23T06:52:11.394Z,88.62
2022-12-23T06:54:37.801Z,88.76
2022-12-23T06:57:04.720Z,89.63
2022-12-23T06:59:31.511Z,89.31
2022-12-23T07:01:57.960Z,89.65
2022-12-23T07:04:24.448Z,89.75
2022-12-23T07:06:50.819Z,89.33
2022-12-23T07:09:17.189Z,89.52
2022-12-23T07:11:43.764Z,89.42
2022-12-23T07:14:10.193Z,89.22
2022-12-23T07:16:36.775Z,89.73
2022-12-23T07:19:03.804Z,89.59
2022-12-23T07:21:30.480Z,89.95
2022-12-23T07:23:56.924Z,90.02
2022-12-23T07:26:23.269Z,89.94
2022-12-23T07:28:49.904Z,89.67
2022-12-23T07:31:16.490Z,89.32
2022-12-23T07:33:42.979Z,89.31
2022-12-23T07:36:09.920Z,88.77
2022-12-23T07:38:36.560Z,88.61
2022-12-23T07:41:03.174Z,89.15
2022-12-23T07:43:29.511Z,88.90
2022-12-23T07:46:00.316Z,89.22
2022-12-23T07:48:27.345Z,89.70
2022-12-23T07:50:53.737Z,90.06
2022-12-23T07:53:20.086Z,90.23
2022-12-23T07:55:49.121Z,90.32
2022-12-23T07:58:19.462Z,90.56
2022-12-23T08:00:45.785Z,90.83
2022-12-23T08:03:12.586Z,90.70
2022-12-23T08:05:38.983Z,90.55
2022-12-23T08:08:05.347Z,90.69
2022-12-23T08:10:31.708Z,90.18
2022-12-23T08:13:00.660Z,90.88
2022-12-23T08:15:27.054Z,90.49
2022-12-23T08:17:56.038Z,90.64
2022-12-23T08:20:22.385Z,90.71
2022-12-23T08:22:48.729Z,90.27
2022-12-23T08:25:15.101Z,90.14
2022-12-23T08:27:41.637Z,89.90
2022-12-23T08:30:08.752Z,90.42
2022-12-23T08:32:35.145Z,89.75
2022-12-23T08:35:01.487Z,89.45
2022-12-23T08:37:27.836Z,89.39
2022-12-23T08:39:54.171Z,89.12
2022-12-23T08:42:20.544Z,88.68
2022-12-23T08:44:47.076Z,88.60
2022-12-23T08:47:13.487Z,88.63
2022-12-23T08:49:39.904Z,88.10
2022-12-23T08:52:06.335Z,87.73
2022-12-23T08:54:32.978Z,87.41
2022-12-23T08:56:59.485Z,87.24
2022-12-23T08:59:25.985Z,87.33
2022-12-23T09:01:52.418Z,87.22
2022-12-23T09:04:18.859Z,86.70
2022-12-23T09:06:45.511Z,86.65
2022-12-23T09:09:14.140Z,86.45
2022-12-23T09:11:40.503Z,86.44
2022-12-23T09:14:08.490Z,86.24
2022-12-23T09:16:35.134Z,86.67
2022-12-23T09:19:01.520Z,86.36
2022-12-23T09:21:29.259Z,86.17
2022-12-23T09:23:55.633Z,85.90
2022-12-23T09:26:27.754Z,86.47
2022-12-23T09:28:55.077Z,86.15
2022-12-23T09:31:22.160Z,86.37
2022-12-23T09:33:50.775Z,85.35
2022-12-23T09:36:17.761Z,85.67
2022-12-23T09:38:44.115Z,85.76
2022-12-23T09:41:43.849Z,85.89
2022-12-23T09:44:41.519Z,85.53
2022-12-23T09:47:13.446Z,86.52
2022-12-23T09:49:47.149Z,86.14
2022-12-23T09:52:22.288Z,85.97
2022-12-23T09:54:52.529Z,86.21
2022-12-23T09:57:31.751Z,86.53
2022-12-23T10:00:09.428Z,87.54
2022-12-23T10:02:59.825Z,88.78
2022-12-23T10:05:47.849Z,89.05
2022-12-23T10:08:26.050Z,89.77
2022-12-23T10:10:59.071Z,89.64
2022-12-23T10:13:29.619Z,89.13
2022-12-23T10:16:01.476Z,89.45
2022-12-23T10:18:40.139Z,89.16
2022-12-23T10:21:14.700Z,89.33
2022-12-23T10:23:44.167Z,89.07
2022-12-23T10:26:32.381Z,90.04
2022-12-23T10:29:07.612Z,90.10
2022-12-23T10:31:48.626Z,90.50
2022-12-23T10:34:26.712Z,90.40
2022-12-23T10:37:02.600Z,90.48
2022-12-23T10:39:48.680Z,91.03
2022-12-23T10:42:20.511Z,90.34
2022-12-23T10:44:56.927Z,90.39
2022-12-23T10:47:55.106Z,90.49
2022-12-23T10:50:34.503Z,90.39
2022-12-23T10:53:06.245Z,90.25
2022-12-23T10:55:35.652Z,90.35
2022-12-23T10:58:16.170Z,90.68
2022-12-23T11:00:47.973Z,91.00
2022-12-23T11:03:23.504Z,90.89
2022-12-23T11:05:52.842Z,90.42
2022-12-23T11:08:22.001Z,90.25
2022-12-23T11:10:49.402Z,89.91
2022-12-23T11:13:40.686Z,89.06
2022-12-23T11:16:22.186Z,88.88
2022-12-23T11:18:59.241Z,89.46
2022-12-23T11:21:26.435Z,89.55
2022-12-23T11:24:14.287Z,89.34
2022-12-23T11:26:40.785Z,89.15
2022-12-23T11:29:12.772Z,88.83
2022-12-23T11:31:42.163Z,89.33
2022-12-23T11:34:17.179Z,89.43
2022-12-23T11:36:47.775Z,89.31
2022-12-23T11:39:34.728Z,90.11
2022-12-23T11:42:15.179Z,90.60
2022-12-23T11:44:43.612Z,90.87
2022-12-23T11:47:25.360Z,90.60
2022-12-23T11:49:54.231Z,89.98
2022-12-23T11:52:23.325Z,89.15
2022-12-23T11:54:55.693Z,89.11
2022-12-23T11:57:51.480Z,88.77
2022-12-23T12:00:25.001Z,88.78
2022-12-23T12:02:54.837Z,88.43
2022-12-23T12:05:46.510Z,88.12
2022-12-23T12:08:20.932Z,88.17
2022-12-23T12:10:52.582Z,88.07
2022-12-23T12:13:35.660Z,87.32
2022-12-23T12:16:15.301Z,87.47
2022-12-23T12:18:47.095Z,87.71
2022-12-23T12:21:25.952Z,87.42
2022-12-23T12:24:17.186Z,87.58
2022-12-23T12:26:51.446Z,88.20
2022-12-23T12:29:28.467Z,88.08
2022-12-23T12:31:58.323Z,87.84
2022-12-23T12:34:41.402Z,88.00
2022-12-23T12:37:29.768Z,87.67
2022-12-23T12:40:15.162Z,87.88
2022-12-23T12:42:44.570Z,88.08
2022-12-23T12:45:34.364Z,88.03
2022-12-23T12:48:22.300Z,88.35
2022-12-23T12:51:24.617Z,88.35
2022-12-23T12:54:05.144Z,88.68
2022-12-23T12:56:41.397Z,88.09
2022-12-23T12:59:15.592Z,87.83
2022-12-23T13:02:23.625Z,87.86
2022-12-23T13:05:08.263Z,87.79
2022-12-23T13:07:48.626Z,88.27
2022-12-23T13:11:05.758Z,88.43
2022-12-23T13:13:58.145Z,87.83
2022-12-23T13:16:56.074Z,87.17
2022-12-23T13:19:37.194Z,87.40
2022-12-23T13:22:13.725Z,87.18
2022-12-23T13:25:20.295Z,87.01
2022-12-23T13:28:09.012Z,87.44
2022-12-23T13:30:42.967Z,87.46
2022-12-23T13:33:23.560Z,87.77
2022-12-23T13:36:11.799Z,87.77
2022-12-23T13:39:03.115Z,87.94
2022-12-23T13:41:36.631Z,88.11
2022-12-23T13:44:05.592Z,88.14
2022-12-23T13:46:43.398Z,88.08
2022-12-23T13:49:50.921Z,87.77
2022-12-23T13:52:35.599Z,87.46
2022-12-23T13:55:04.977Z,86.36
2022-12-23T13:58:04.623Z,86.58
2022-12-23T14:00:33.647Z,87.93
2022-12-23T14:03:00.620Z,87.25
2022-12-23T14:05:40.920Z,87.36
2022-12-23T14:08:19.307Z,87.84
2022-12-23T14:10:59.896Z,87.87
2022-12-23T14:13:44.093Z,88.22
2022-12-23T14:16:31.832Z,87.29
2022-12-23T14:19:17.013Z,86.64
2022-12-23T14:22:07.734Z,87.13
2022-12-23T14:24:54.894Z,88.00
2022-12-23T14:27:36.494Z,88.09
2022-12-23T14:30:07.894Z,86.78
2022-12-23T14:32:43.199Z,87.02
2022-12-23T14:35:18.711Z,87.24
2022-12-23T14:38:11.015Z,86.83
2022-12-23T14:40:37.349Z,87.53
2022-12-23T14:43:22.054Z,87.13
2022-12-23T14:45:48.408Z,87.19
2022-12-23T14:48:33.111Z,87.29
2022-12-23T14:51:08.653Z,88.13
2022-12-23T14:53:37.920Z,87.10
2022-12-23T14:56:16.811Z,87.00
2022-12-23T14:58:46.515Z,87.35
2022-12-23T15:01:18.018Z,86.80
2022-12-23T15:03:54.491Z,87.16
2022-12-23T15:06:42.911Z,87.27
2022-12-23T15:09:19.891Z,87.04
2022-12-23T15:11:46.656Z,87.73
2022-12-23T15:14:25.247Z,87.14
2022-12-23T15:16:51.845Z,86.94
2022-12-23T15:19:24.853Z,86.57
2022-12-23T15:22:13.521Z,87.07
2022-12-23T15:24:47.398Z,86.44
2022-12-23T15:27:28.796Z,86.97
2022-12-23T15:29:57.515Z,85.91
2022-12-23T15:32:25.470Z,86.20
2022-12-23T15:34:55.927Z,85.91
2022-12-23T15:37:27.624Z,85.36
2022-12-23T15:40:04.541Z,85.95
2022-12-23T15:42:38.136Z,85.49
2022-12-23T15:45:22.843Z,85.84
2022-12-23T15:47:50.183Z,84.87
2022-12-23T15:50:18.363Z,84.61
2022-12-23T15:52:47.396Z,84.03
2022-12-23T15:55:20.537Z,83.69
2022-12-23T15:57:50.688Z,84.51
2022-12-23T16:00:23.612Z,83.97
2022-12-23T16:03:01.500Z,82.80
2022-12-23T16:05:35.334Z,83.11
2022-12-23T16:08:15.168Z,84.07
2022-12-23T16:11:18.728Z,85.47
2022-12-23T16:13:59.467Z,85.87
2022-12-23T16:16:33.185Z,85.75
2022-12-23T16:19:00.048Z,86.45
2022-12-23T16:21:33.734Z,86.63
2022-12-23T16:24:01.710Z,87.50
2022-12-23T16:26:28.093Z,86.85
2022-12-23T16:28:59.470Z,87.22
2022-12-23T16:31:26.174Z,87.62
2022-12-23T16:33:58.102Z,87.74
2022-12-23T16:36:27.572Z,87.44
2022-12-23T16:39:02.218Z,87.90
2022-12-23T16:41:28.581Z,87.92
2022-12-23T16:43:54.943Z,87.71
2022-12-23T16:46:23.196Z,87.94
2022-12-23T16:48:52.618Z,87.81
2022-12-23T16:51:20.687Z,88.10
2022-12-23T16:53:48.501Z,88.72
2022-12-23T16:56:17.581Z,89.51
2022-12-23T16:58:44.410Z,89.11
2022-12-23T17:01:24.754Z,88.71
2022-12-23T17:03:51.825Z,89.28
2022-12-23T17:06:19.873Z,89.28
2022-12-23T17:08:46.719Z,89.35
2022-12-23T17:11:36.715Z,89.07
2022-12-23T17:14:06.885Z,89.10
2022-12-23T17:16:37.092Z,89.86
2022-12-23T17:19:05.330Z,89.53
2022-12-23T17:21:36.593Z,89.28
2022-12-23T17:24:08.856Z,89.58
2022-12-23T17:26:35.259Z,89.18
2022-12-23T17:29:05.287Z,90.11
2022-12-23T17:31:33.889Z,90.35
2022-12-23T17:34:01.695Z,89.90
2022-12-23T17:36:28.750Z,89.72
2022-12-23T17:38:55.166Z,88.61
2022-12-23T17:41:27.467Z,88.63
2022-12-23T17:43:54.028Z,88.38
2022-12-23T17:46:20.921Z,88.47
2022-12-23T17:48:47.791Z,88.12
2022-12-23T17:51:17.996Z,87.01
2022-12-23T17:53:46.820Z,86.55
2022-12-23T17:56:18.272Z,86.00
2022-12-23T17:58:46.176Z,85.83
2022-12-23T18:01:36.487Z,86.66
2022-12-23T18:04:02.867Z,87.37
2022-12-23T18:06:29.465Z,87.50
2022-12-23T18:08:59.461Z,85.93
2022-12-23T18:11:32.372Z,85.62
2022-12-23T18:13:59.365Z,85.24
2022-12-23T18:16:25.741Z,85.69
2022-12-23T18:18:52.803Z,85.31
2022-12-23T18:21:28.972Z,84.77
2022-12-23T18:23:57.675Z,84.71
2022-12-23T18:26:24.904Z,84.55
2022-12-23T18:28:52.630Z,84.42
2022-12-23T18:31:23.069Z,84.56
2022-12-23T18:33:50.923Z,84.71
2022-12-23T18:36:26.197Z,84.59
2022-12-23T18:38:53.448Z,84.52
2022-12-23T18:41:21.662Z,84.88
2022-12-23T18:43:48.093Z,84.28
2022-12-23T18:46:14.529Z,84.26
2022-12-23T18:48:40.903Z,84.35
2022-12-23T18:51:07.657Z,84.42
2022-12-23T18:53:34.021Z,83.77
2022-12-23T18:56:00.371Z,83.00
2022-12-23T18:58:26.713Z,83.94
2022-12-23T19:00:53.222Z,83.94
2022-12-23T19:03:25.364Z,83.79
2022-12-23T19:05:53.645Z,83.70
2022-12-23T19:08:26.277Z,84.68
2022-12-23T19:10:55.424Z,85.47
2022-12-23T19:13:22.348Z,85.02
2022-12-23T19:15:48.765Z,85.64
2022-12-23T19:18:18.708Z,85.25
2022-12-23T19:20:46.409Z,84.12
2022-12-23T19:23:13.376Z,84.57
2022-12-23T19:25:50.783Z,84.59
2022-12-23T19:28:21.851Z,84.30
2022-12-23T19:30:48.632Z,84.24
2022-12-23T19:33:15.242Z,84.02
2022-12-23T19:35:42.623Z,83.77
2022-12-23T19:38:09.395Z,83.78
2022-12-23T19:40:36.305Z,83.49
2022-12-23T19:43:02.896Z,83.08
2022-12-23T19:45:29.333Z,83.14
2022-12-23T19:47:55.717Z,82.93
2022-12-23T19:50:22.265Z,82.51
2022-12-23T19:52:50.006Z,82.32
2022-12-23T19:55:16.500Z,82.20
2022-12-23T19:57:43.098Z,82.06
2022-12-23T20:00:10.175Z,81.75
2022-12-23T20:02:36.671Z,81.48
2022-12-23T20:05:04.088Z,81.39
2022-12-23T20:07:30.467Z,81.95
2022-12-23T20:09:56.889Z,81.49
2022-12-23T20:12:25.222Z,81.37
2022-12-23T20:14:51.622Z,81.34
2022-12-23T20:17:18.032Z,81.40
2022-12-23T20:19:46.422Z,81.51
2022-12-23T20:22:13.038Z,81.47
2022-12-23T20:24:39.427Z,81.30
2022-12-23T20:27:10.922Z,81.31
2022-12-23T20:29:38.409Z,80.76
2022-12-23T20:32:05.088Z,80.65
2022-12-23T20:34:38.367Z,80.06
2022-12-23T20:37:05.949Z,80.17
2022-12-23T20:39:32.345Z,80.41
2022-12-23T20:41:58.818Z,80.21
2022-12-23T20:44:34.378Z,80.06
2022-12-23T20:47:02.585Z,80.45
2022-12-23T20:49:29.183Z,80.08
2022-12-23T20:51:55.535Z,80.03
2022-12-23T20:54:26.331Z,79.77
2022-12-23T20:56:54.493Z,79.85
2022-12-23T20:59:20.972Z,80.27
2022-12-23T21:01:47.441Z,80.07
2022-12-23T21:04:15.985Z,79.98
2022-12-23T21:06:43.037Z,79.92
2022-12-23T21:09:12.122Z,79.64
2022-12-23T21:11:41.504Z,79.70
2022-12-23T21:14:08.163Z,79.47
2022-12-23T21:16:36.934Z,79.57
2022-12-23T21:19:04.723Z,79.64
2022-12-23T21:21:31.746Z,79.75
2022-12-23T21:24:01.096Z,79.62
2022-12-23T21:26:29.280Z,79.89
2022-12-23T21:29:00.588Z,79.62
2022-12-23T21:31:28.429Z,79.45
2022-12-23T21:33:55.095Z,79.69
2022-12-23T21:36:24.981Z,79.76
2022-12-23T21:38:51.760Z,79.71
2022-12-23T21:41:21.172Z,79.91
2022-12-23T21:43:48.832Z,79.79
2022-12-23T21:46:17.990Z,80.68
2022-12-23T21:48:44.536Z,80.02
2022-12-23T21:51:14.589Z,79.99
2022-12-23T21:53:42.401Z,80.00
2022-12-23T21:56:12.260Z,79.61
2022-12-23T21:58:39.253Z,80.18
2022-12-23T22:01:11.134Z,80.17
2022-12-23T22:03:38.494Z,80.04
2022-12-23T22:06:17.103Z,80.26
2022-12-23T22:08:43.894Z,80.62
2022-12-23T22:11:13.843Z,81.04
2022-12-23T22:13:40.744Z,81.03
2022-12-23T22:16:12.944Z,80.90
2022-12-23T22:18:40.210Z,81.52
2022-12-23T22:21:11.930Z,81.25
2022-12-23T22:23:39.070Z,81.69
2022-12-23T22:26:06.914Z,81.86
2022-12-23T22:28:35.723Z,81.73
2022-12-23T22:31:04.284Z,81.14
2022-12-23T22:33:31.619Z,80.95
2022-12-23T22:35:58.059Z,81.14
2022-12-23T22:38:24.455Z,80.06
2022-12-23T22:40:52.235Z,80.33
2022-12-23T22:43:19.681Z,78.99
2022-12-23T22:45:46.175Z,79.48
2022-12-23T22:48:13.344Z,79.72
2022-12-23T22:50:39.757Z,79.59
2022-12-23T22:53:06.171Z,78.96
2022-12-23T22:55:32.647Z,78.80
2022-12-23T22:57:59.016Z,78.72
2022-12-23T23:00:25.497Z,78.76
2022-12-23T23:02:51.889Z,79.82
2022-12-23T23:05:18.311Z,80.01
2022-12-23T23:07:44.756Z,80.50
2022-12-23T23:10:11.383Z,81.00
2022-12-23T23:12:38.253Z,80.79
2022-12-23T23:15:04.936Z,80.57
2022-12-23T23:17:31.274Z,80.98
2022-12-23T23:19:57.684Z,81.19
2022-12-23T23:22:25.276Z,81.14
2022-12-23T23:24:52.282Z,81.77
2022-12-23T23:27:18.813Z,81.71
2022-12-23T23:29:45.383Z,80.91
2022-12-23T23:32:11.899Z,80.90
2022-12-23T23:34:38.374Z,81.08
2022-12-23T23:37:05.165Z,81.13
2022-12-23T23:39:31.896Z,80.91
2022-12-23T23:41:58.570Z,80.79
2022-12-23T23:44:25.227Z,80.88
2022-12-23T23:46:51.580Z,80.50
2022-12-23T23:49:17.987Z,80.42
2022-12-23T23:51:44.370Z,80.22
2022-12-23T23:54:10.809Z,80.18
2022-12-23T23:56:38.953Z,80.35
2022-12-23T23:59:06.641Z,80.14
